createdAt,value
2023-01-10T00:00:04.660Z,99174.75
2023-01-10T00:02:31.175Z,99186.22
2023-01-10T00:04:57.749Z,99189.38
2023-01-10T00:07:24.173Z,99204.69
2023-01-10T00:09:50.575Z,99194.25
2023-01-10T00:12:35.725Z,99203.97
2023-01-10T00:15:02.166Z,99195.66
2023-01-10T00:17:28.567Z,99210.75
2023-01-10T00:19:55.005Z,99216.91
2023-01-10T00:22:24.942Z,99221.16
2023-01-10T00:24:51.941Z,99230.47
2023-01-10T00:27:22.657Z,99227.38
2023-01-10T00:29:52.920Z,99244.44
2023-01-10T00:32:22.398Z,99242.88
2023-01-10T00:34:48.855Z,99255.59
2023-01-10T00:37:15.297Z,99267.16
2023-01-10T00:39:41.786Z,99267.03
2023-01-10T00:42:29.752Z,99277.56
2023-01-10T00:44:56.146Z,99295.72
2023-01-10T00:47:22.633Z,99297.56
2023-01-10T00:49:49.081Z,99303.63
2023-01-10T00:52:15.468Z,99302.66
2023-01-10T00:54:41.873Z,99309.09
2023-01-10T00:57:08.356Z,99319.31
2023-01-10T00:59:34.749Z,99324.44
2023-01-10T01:02:01.265Z,99325.34
2023-01-10T01:04:27.808Z,99331.28
2023-01-10T01:06:54.238Z,99343.25
2023-01-10T01:09:20.666Z,99342.97
2023-01-10T01:11:47.148Z,99349.25
2023-01-10T01:14:16.224Z,99349.44
2023-01-10T01:16:42.629Z,99363.22
2023-01-10T01:19:09.084Z,99356.09
2023-01-10T01:21:35.564Z,99363.63
2023-01-10T01:24:02.009Z,99367.38
2023-01-10T01:26:28.488Z,99374.25
2023-01-10T01:28:54.946Z,99377.16
2023-01-10T01:31:21.420Z,99387.81
2023-01-10T01:33:48.034Z,99391.94
2023-01-10T01:36:14.464Z,99398.91
2023-01-10T01:38:41.551Z,99404.41
2023-01-10T01:41:26.533Z,99413.69
2023-01-10T01:44:00.262Z,99421.25
2023-01-10T01:46:27.074Z,99427.66
2023-01-10T01:48:53.514Z,99432.34
2023-01-10T01:51:25.300Z,99432.75
2023-01-10T01:53:59.962Z,99441.84
2023-01-10T01:56:31.238Z,99451.59
2023-01-10T01:59:06.102Z,99450.69
2023-01-10T02:01:33.743Z,99459.47
2023-01-10T02:04:12.353Z,99469.53
2023-01-10T02:06:39.199Z,99452.25
2023-01-10T02:09:13.417Z,99466.00
2023-01-10T02:11:39.840Z,99462.69
2023-01-10T02:14:06.893Z,99468.34
2023-01-10T02:16:33.292Z,99466.69
2023-01-10T02:18:59.950Z,99466.00
2023-01-10T02:21:41.705Z,99472.41
2023-01-10T02:24:26.286Z,99480.81
2023-01-10T02:27:10.882Z,99491.69
2023-01-10T02:29:48.561Z,99494.31
2023-01-10T02:32:45.954Z,99489.91
2023-01-10T02:35:32.342Z,99488.59
2023-01-10T02:38:29.082Z,99497.69
2023-01-10T02:41:05.343Z,99502.44
2023-01-10T02:43:35.668Z,99495.00
2023-01-10T02:46:15.708Z,99489.16
2023-01-10T02:48:42.473Z,99487.72
2023-01-10T02:51:22.102Z,99487.84
2023-01-10T02:53:56.803Z,99487.84
2023-01-10T02:56:46.290Z,99492.19
2023-01-10T02:59:31.118Z,99501.72
2023-01-10T03:02:06.648Z,99498.81
2023-01-10T03:04:48.371Z,99507.03
2023-01-10T03:07:24.282Z,99503.81
2023-01-10T03:10:10.896Z,99517.00
2023-01-10T03:12:46.265Z,99520.66
2023-01-10T03:15:16.053Z,99528.72
2023-01-10T03:17:43.638Z,99523.63
2023-01-10T03:20:10.880Z,99534.03
2023-01-10T03:22:38.922Z,99540.91
2023-01-10T03:25:07.548Z,99536.56
2023-01-10T03:27:43.449Z,99545.31
2023-01-10T03:30:19.926Z,99544.66
2023-01-10T03:32:46.538Z,99547.09
2023-01-10T03:35:13.711Z,99547.78
2023-01-10T03:37:49.449Z,99557.28
2023-01-10T03:40:22.651Z,99554.88
2023-01-10T03:43:16.455Z,99559.84
2023-01-10T03:45:48.808Z,99577.34
2023-01-10T03:48:15.825Z,99576.53
2023-01-10T03:50:43.782Z,99580.19
2023-01-10T03:53:12.079Z,99586.94
2023-01-10T03:55:40.580Z,99591.59
2023-01-10T03:58:07.499Z,99599.69
2023-01-10T04:00:34.008Z,99602.13
2023-01-10T04:03:00.405Z,99607.44
2023-01-10T04:05:26.929Z,99613.94
2023-01-10T04:07:53.409Z,99613.41
2023-01-10T04:10:21.121Z,99622.84
2023-01-10T04:12:47.597Z,99623.59
2023-01-10T04:15:14.038Z,99617.16
2023-01-10T04:17:40.416Z,99626.13
2023-01-10T04:20:07.179Z,99638.31
2023-01-10T04:22:33.604Z,99644.28
2023-01-10T04:25:00.082Z,99641.88
2023-01-10T04:27:26.523Z,99640.75
2023-01-10T04:29:53.184Z,99639.19
2023-01-10T04:32:19.558Z,99647.84
2023-01-10T04:34:46.019Z,99654.69
2023-01-10T04:37:12.493Z,99652.47
2023-01-10T04:39:38.896Z,99651.81
2023-01-10T04:42:05.401Z,99652.69
2023-01-10T04:44:31.801Z,99659.31
2023-01-10T04:46:58.250Z,99665.31
2023-01-10T04:49:24.679Z,99670.41
2023-01-10T04:51:51.459Z,99674.16
2023-01-10T04:54:22.142Z,99684.78
2023-01-10T04:56:48.928Z,99684.13
2023-01-10T04:59:15.469Z,99688.22
2023-01-10T05:01:41.953Z,99696.75
2023-01-10T05:04:09.127Z,99692.19
2023-01-10T05:06:35.970Z,99687.25
2023-01-10T05:09:02.884Z,99691.22
2023-01-10T05:11:29.321Z,99690.22
2023-01-10T05:13:55.723Z,99690.31
2023-01-10T05:16:22.172Z,99691.88
2023-01-10T05:18:48.726Z,99693.66
2023-01-10T05:21:15.181Z,99686.91
2023-01-10T05:23:41.565Z,99685.72
2023-01-10T05:26:10.549Z,99689.25
2023-01-10T05:28:37.591Z,99695.41
2023-01-10T05:31:06.671Z,99692.09
2023-01-10T05:33:33.073Z,99690.31
2023-01-10T05:36:06.791Z,99701.06
2023-01-10T05:38:33.536Z,99713.38
2023-01-10T05:41:00.525Z,99716.56
2023-01-10T05:43:27.511Z,99730.81
2023-01-10T05:45:53.999Z,99727.28
2023-01-10T05:48:20.505Z,99714.34
2023-01-10T05:50:49.423Z,99714.56
2023-01-10T05:53:15.865Z,99718.91
2023-01-10T05:55:42.349Z,99717.13
2023-01-10T05:58:11.118Z,99729.84
2023-01-10T06:00:39.718Z,99744.28
2023-01-10T06:03:06.268Z,99736.63
2023-01-10T06:05:32.742Z,99744.34
2023-01-10T06:07:59.348Z,99745.56
2023-01-10T06:10:27.081Z,99754.31
2023-01-10T06:12:53.727Z,99754.75
2023-01-10T06:15:20.219Z,99761.59
2023-01-10T06:17:46.708Z,99763.50
2023-01-10T06:20:13.271Z,99772.81
2023-01-10T06:22:41.459Z,99775.22
2023-01-10T06:25:09.233Z,99779.41
2023-01-10T06:27:35.705Z,99780.31
2023-01-10T06:30:02.166Z,99781.97
2023-01-10T06:32:28.637Z,99781.09
2023-01-10T06:34:55.029Z,99790.41
2023-01-10T06:37:21.486Z,99784.88
2023-01-10T06:39:47.928Z,99787.84
2023-01-10T06:42:14.323Z,99803.13
2023-01-10T06:44:40.706Z,99801.66
2023-01-10T06:47:07.091Z,99807.84
2023-01-10T06:49:33.541Z,99802.78
2023-01-10T06:51:59.965Z,99822.69
2023-01-10T06:54:27.146Z,99817.59
2023-01-10T06:56:53.524Z,99814.72
2023-01-10T06:59:20.101Z,99812.06
2023-01-10T07:01:46.666Z,99818.16
2023-01-10T07:04:13.229Z,99824.03
2023-01-10T07:06:39.824Z,99826.09
2023-01-10T07:09:06.873Z,99831.28
2023-01-10T07:11:34.275Z,99829.28
2023-01-10T07:14:01.727Z,99841.63
2023-01-10T07:16:28.303Z,99841.25
2023-01-10T07:18:58.222Z,99849.25
2023-01-10T07:21:24.995Z,99841.63
2023-01-10T07:23:51.486Z,99842.91
2023-01-10T07:26:19.096Z,99838.34
2023-01-10T07:28:52.501Z,99852.09
2023-01-10T07:31:20.276Z,99864.56
2023-01-10T07:33:46.767Z,99864.56
2023-01-10T07:36:14.095Z,99870.56
2023-01-10T07:38:40.604Z,99875.75
2023-01-10T07:41:07.017Z,99889.91
2023-01-10T07:43:33.716Z,99883.44
2023-01-10T07:46:04.790Z,99882.69
2023-01-10T07:48:31.484Z,99888.25
2023-01-10T07:50:59.523Z,99888.75
2023-01-10T07:53:27.413Z,99883.38
2023-01-10T07:55:54.208Z,99886.69
2023-01-10T07:58:20.771Z,99889.50
2023-01-10T08:00:49.322Z,99894.81
2023-01-10T08:03:15.873Z,99904.78
2023-01-10T08:05:42.664Z,99916.09
2023-01-10T08:08:10.435Z,99912.28
2023-01-10T08:10:39.076Z,99926.38
2023-01-10T08:13:17.790Z,99927.03
2023-01-10T08:15:46.952Z,99925.72
2023-01-10T08:18:13.369Z,99922.63
2023-01-10T08:20:40.715Z,99914.06
2023-01-10T08:23:07.162Z,99921.81
2023-01-10T08:25:33.866Z,99917.50
2023-01-10T08:28:00.589Z,99917.59
2023-01-10T08:30:27.060Z,99924.28
2023-01-10T08:32:53.496Z,99926.56
2023-01-10T08:35:20.408Z,99930.94
2023-01-10T08:37:46.824Z,99935.91
2023-01-10T08:40:13.490Z,99940.88
2023-01-10T08:42:39.887Z,99938.81
2023-01-10T08:45:06.770Z,99940.41
2023-01-10T08:47:35.369Z,99945.75
2023-01-10T08:50:02.722Z,99950.53
2023-01-10T08:52:29.102Z,99954.38
2023-01-10T08:54:55.520Z,99951.53
2023-01-10T08:57:22.085Z,99947.38
2023-01-10T08:59:48.492Z,99954.50
2023-01-10T09:02:15.187Z,99953.63
2023-01-10T09:04:41.701Z,99962.47
2023-01-10T09:07:08.121Z,99974.81
2023-01-10T09:09:34.576Z,99958.91
2023-01-10T09:12:01.003Z,99958.41
2023-01-10T09:14:27.432Z,99967.34
2023-01-10T09:16:53.862Z,99967.81
2023-01-10T09:19:20.412Z,99975.72
2023-01-10T09:21:46.808Z,99968.09
2023-01-10T09:24:13.488Z,99977.00
2023-01-10T09:26:39.894Z,99982.22
2023-01-10T09:29:06.615Z,99973.47
2023-01-10T09:31:33.299Z,99975.97
2023-01-10T09:33:59.732Z,99979.72
2023-01-10T09:36:26.163Z,99988.88
2023-01-10T09:38:52.584Z,99989.13
2023-01-10T09:41:25.488Z,99994.69
2023-01-10T09:44:03.624Z,99984.84
2023-01-10T09:46:52.213Z,99988.69
2023-01-10T09:49:21.856Z,100000.50
2023-01-10T09:51:50.832Z,100002.25
2023-01-10T09:54:29.643Z,100002.78
2023-01-10T09:56:56.337Z,99990.88
2023-01-10T09:59:40.354Z,99995.59
2023-01-10T10:02:25.684Z,99987.06
2023-01-10T10:05:04.709Z,99987.78
2023-01-10T10:07:31.135Z,99985.94
2023-01-10T10:09:57.996Z,99982.34
2023-01-10T10:12:30.305Z,99985.75
2023-01-10T10:15:12.173Z,99988.69
2023-01-10T10:17:52.791Z,99980.03
2023-01-10T10:20:34.709Z,99994.44
2023-01-10T10:23:26.356Z,99993.00
2023-01-10T10:26:04.729Z,99993.78
2023-01-10T10:28:56.177Z,99991.22
2023-01-10T10:31:41.302Z,99986.66
2023-01-10T10:34:21.155Z,99991.22
2023-01-10T10:36:51.896Z,99982.59
2023-01-10T10:39:22.205Z,99981.03
2023-01-10T10:41:52.541Z,99988.44
2023-01-10T10:44:30.485Z,99970.75
2023-01-10T10:47:00.782Z,99970.06
2023-01-10T10:49:37.950Z,99975.34
2023-01-10T10:52:13.596Z,99974.06
2023-01-10T10:54:40.039Z,99967.00
2023-01-10T10:57:06.421Z,99950.34
2023-01-10T10:59:32.898Z,99956.31
2023-01-10T11:02:00.626Z,99950.81
2023-01-10T11:04:30.486Z,99959.59
2023-01-10T11:06:57.265Z,99958.16
2023-01-10T11:09:26.389Z,99947.28
2023-01-10T11:11:54.231Z,99950.84
2023-01-10T11:14:45.993Z,99938.22
2023-01-10T11:17:25.874Z,99926.06
2023-01-10T11:20:04.059Z,99933.16
2023-01-10T11:22:40.017Z,99928.59
2023-01-10T11:25:15.139Z,99930.63
2023-01-10T11:27:47.604Z,99929.50
2023-01-10T11:30:20.408Z,99923.97
2023-01-10T11:33:23.356Z,99928.50
2023-01-10T11:35:58.875Z,99928.50
2023-01-10T11:38:29.914Z,99924.09
2023-01-10T11:41:16.289Z,99919.22
2023-01-10T11:43:42.723Z,99915.91
2023-01-10T11:46:21.205Z,99912.34
2023-01-10T11:49:05.706Z,99898.81
2023-01-10T11:51:37.130Z,99889.63
2023-01-10T11:54:06.333Z,99889.53
2023-01-10T11:56:34.660Z,99892.16
2023-01-10T11:59:12.462Z,99891.53
2023-01-10T12:01:55.256Z,99888.97
2023-01-10T12:04:22.469Z,99880.44
2023-01-10T12:06:56.834Z,99876.66
2023-01-10T12:09:44.125Z,99876.09
2023-01-10T12:12:21.289Z,99875.09
2023-01-10T12:14:48.994Z,99877.78
2023-01-10T12:17:30.376Z,99877.44
2023-01-10T12:20:00.513Z,99866.78
2023-01-10T12:22:31.092Z,99866.00
2023-01-10T12:24:58.770Z,99866.97
2023-01-10T12:27:27.427Z,99862.69
2023-01-10T12:29:57.998Z,99858.69
2023-01-10T12:32:30.597Z,99857.56
2023-01-10T12:35:01.395Z,99852.22
2023-01-10T12:37:40.260Z,99842.91
2023-01-10T12:40:21.790Z,99841.94
2023-01-10T12:43:17.534Z,99841.59
2023-01-10T12:45:55.090Z,99842.09
2023-01-10T12:48:32.157Z,99837.66
2023-01-10T12:51:05.317Z,99835.13
2023-01-10T12:53:43.513Z,99837.13
2023-01-10T12:56:13.482Z,99838.00
2023-01-10T12:58:53.770Z,99830.63
2023-01-10T13:01:24.588Z,99831.78
2023-01-10T13:03:55.605Z,99830.63
2023-01-10T13:06:37.943Z,99832.44
2023-01-10T13:09:08.138Z,99831.53
2023-01-10T13:11:45.000Z,99825.78
2023-01-10T13:14:14.630Z,99826.44
2023-01-10T13:17:14.518Z,99826.63
2023-01-10T13:19:40.929Z,99820.06
2023-01-10T13:22:23.416Z,99827.50
2023-01-10T13:24:58.079Z,99822.59
2023-01-10T13:27:28.344Z,99834.41
2023-01-10T13:29:54.828Z,99819.28
2023-01-10T13:32:30.895Z,99826.63
2023-01-10T13:35:12.155Z,99825.28
2023-01-10T13:37:39.648Z,99825.28
2023-01-10T13:40:06.846Z,99830.59
2023-01-10T13:42:55.764Z,99831.25
2023-01-10T13:45:29.819Z,99816.59
2023-01-10T13:47:56.967Z,99811.84
2023-01-10T13:50:23.563Z,99806.19
2023-01-10T13:53:06.909Z,99804.41
2023-01-10T13:55:36.177Z,99793.94
2023-01-10T13:58:44.582Z,99791.47
2023-01-10T14:01:53.168Z,99790.38
2023-01-10T14:04:33.731Z,99797.19
2023-01-10T14:07:02.849Z,99790.28
2023-01-10T14:09:47.820Z,99793.00
2023-01-10T14:12:27.069Z,99790.88
2023-01-10T14:14:57.218Z,99795.66
2023-01-10T14:17:27.751Z,99791.34
2023-01-10T14:20:23.030Z,99783.75
2023-01-10T14:23:01.648Z,99781.91
2023-01-10T14:25:28.671Z,99782.38
2023-01-10T14:27:56.504Z,99778.72
2023-01-10T14:30:25.836Z,99772.72
2023-01-10T14:32:56.838Z,99767.41
2023-01-10T14:35:30.569Z,99767.06
2023-01-10T14:37:58.745Z,99769.16
2023-01-10T14:40:48.521Z,99759.59
2023-01-10T14:43:20.404Z,99760.59
2023-01-10T14:45:56.019Z,99752.91
2023-01-10T14:48:45.745Z,99757.13
2023-01-10T14:51:12.085Z,99749.03
2023-01-10T14:53:38.537Z,99747.13
2023-01-10T14:56:18.046Z,99736.91
2023-01-10T14:58:44.447Z,99743.59
2023-01-10T15:01:11.162Z,99740.47
2023-01-10T15:03:45.207Z,99745.81
2023-01-10T15:06:11.593Z,99748.59
2023-01-10T15:08:37.985Z,99752.03
2023-01-10T15:11:06.663Z,99743.63
2023-01-10T15:13:36.864Z,99743.84
2023-01-10T15:16:05.376Z,99737.88
2023-01-10T15:18:39.336Z,99736.31
2023-01-10T15:21:06.317Z,99740.31
2023-01-10T15:23:44.902Z,99743.53
2023-01-10T15:26:21.833Z,99742.75
2023-01-10T15:29:12.279Z,99737.03
2023-01-10T15:31:40.139Z,99732.84
2023-01-10T15:34:08.736Z,99737.28
2023-01-10T15:36:35.583Z,99733.31
2023-01-10T15:39:02.071Z,99725.75
2023-01-10T15:41:28.546Z,99710.13
2023-01-10T15:43:55.743Z,99704.50
2023-01-10T15:46:24.040Z,99704.81
2023-01-10T15:48:55.914Z,99700.63
2023-01-10T15:51:28.300Z,99705.81
2023-01-10T15:54:04.126Z,99710.63
2023-01-10T15:57:00.236Z,99708.28
2023-01-10T15:59:37.280Z,99695.41
2023-01-10T16:02:22.555Z,99695.88
2023-01-10T16:04:59.733Z,99688.44
2023-01-10T16:07:42.411Z,99683.13
2023-01-10T16:10:17.572Z,99682.00
2023-01-10T16:13:03.212Z,99672.16
2023-01-10T16:15:32.096Z,99672.94
2023-01-10T16:17:58.863Z,99661.94
2023-01-10T16:20:41.479Z,99664.06
2023-01-10T16:23:15.186Z,99669.47
2023-01-10T16:25:44.902Z,99671.81
2023-01-10T16:28:16.009Z,99681.47
2023-01-10T16:30:46.805Z,99680.47
2023-01-10T16:33:16.104Z,99671.72
2023-01-10T16:35:45.527Z,99668.19
2023-01-10T16:38:12.343Z,99665.50
2023-01-10T16:40:40.958Z,99669.97
2023-01-10T16:43:19.530Z,99664.66
2023-01-10T16:45:47.340Z,99666.88
2023-01-10T16:48:14.444Z,99664.19
2023-01-10T16:50:42.022Z,99658.88
2023-01-10T16:53:12.593Z,99660.66
2023-01-10T16:55:41.012Z,99660.47
2023-01-10T16:58:08.835Z,99665.22
2023-01-10T17:00:35.634Z,99653.38
2023-01-10T17:03:05.022Z,99649.84
2023-01-10T17:05:31.740Z,99656.47
2023-01-10T17:07:58.168Z,99650.94
2023-01-10T17:10:24.582Z,99652.69
2023-01-10T17:12:51.213Z,99646.06
2023-01-10T17:15:17.666Z,99640.97
2023-01-10T17:17:44.999Z,99639.97
2023-01-10T17:20:13.477Z,99639.88
2023-01-10T17:22:40.728Z,99632.69
2023-01-10T17:25:08.043Z,99622.16
2023-01-10T17:27:34.704Z,99619.94
2023-01-10T17:30:01.150Z,99628.22
2023-01-10T17:32:27.655Z,99619.94
2023-01-10T17:34:54.088Z,99609.06
2023-01-10T17:37:23.675Z,99607.75
2023-01-10T17:39:50.141Z,99596.88
2023-01-10T17:42:18.835Z,99594.47
2023-01-10T17:44:45.409Z,99598.69
2023-01-10T17:47:11.834Z,99607.56
2023-01-10T17:49:38.320Z,99599.91
2023-01-10T17:52:04.871Z,99603.13
2023-01-10T17:54:31.297Z,99598.81
2023-01-10T17:56:58.074Z,99587.84
2023-01-10T17:59:24.501Z,99596.25
2023-01-10T18:01:51.050Z,99590.69
2023-01-10T18:04:17.558Z,99580.50
2023-01-10T18:06:46.856Z,99583.06
2023-01-10T18:09:13.262Z,99589.97
2023-01-10T18:11:39.931Z,99574.00
2023-01-10T18:14:24.965Z,99581.28
2023-01-10T18:16:51.441Z,99580.09
2023-01-10T18:19:17.960Z,99569.69
2023-01-10T18:21:44.364Z,99567.03
2023-01-10T18:24:10.816Z,99565.00
2023-01-10T18:26:37.269Z,99569.91
2023-01-10T18:29:03.699Z,99563.22
2023-01-10T18:31:30.160Z,99562.25
2023-01-10T18:33:57.042Z,99562.34
2023-01-10T18:36:24.294Z,99562.34
2023-01-10T18:38:51.882Z,99556.34
2023-01-10T18:41:19.292Z,99560.47
2023-01-10T18:43:46.429Z,99545.53
2023-01-10T18:46:15.829Z,99544.41
2023-01-10T18:48:42.319Z,99540.66
2023-01-10T18:51:12.163Z,99534.44
2023-01-10T18:53:38.594Z,99537.53
2023-01-10T18:56:05.639Z,99534.66
2023-01-10T18:58:35.142Z,99529.28
2023-01-10T19:01:12.701Z,99534.44
2023-01-10T19:03:39.796Z,99536.22
2023-01-10T19:06:07.790Z,99528.47
2023-01-10T19:08:36.210Z,99533.69
2023-01-10T19:11:13.498Z,99531.56
2023-01-10T19:13:40.760Z,99535.81
2023-01-10T19:16:17.484Z,99526.81
2023-01-10T19:18:48.819Z,99522.47
2023-01-10T19:21:15.489Z,99525.16
2023-01-10T19:23:43.729Z,99516.28
2023-01-10T19:26:10.634Z,99511.44
2023-01-10T19:28:37.114Z,99517.72
2023-01-10T19:31:05.178Z,99506.56
2023-01-10T19:33:34.439Z,99510.84
2023-01-10T19:36:05.518Z,99506.22
2023-01-10T19:38:31.916Z,99507.13
2023-01-10T19:40:58.478Z,99500.16
2023-01-10T19:43:25.845Z,99506.09
2023-01-10T19:45:53.306Z,99502.69
2023-01-10T19:48:19.868Z,99493.38
2023-01-10T19:50:46.587Z,99492.59
2023-01-10T19:53:13.448Z,99487.28
2023-01-10T19:55:39.932Z,99502.34
2023-01-10T19:58:06.468Z,99491.28
2023-01-10T20:00:33.044Z,99482.84
2023-01-10T20:03:00.424Z,99483.38
2023-01-10T20:05:27.199Z,99473.31
2023-01-10T20:07:53.690Z,99470.53
2023-01-10T20:10:20.170Z,99473.31
2023-01-10T20:12:46.604Z,99471.53
2023-01-10T20:15:13.022Z,99467.41
2023-01-10T20:17:40.547Z,99468.41
2023-01-10T20:20:07.473Z,99469.94
2023-01-10T20:22:33.930Z,99467.31
2023-01-10T20:25:00.804Z,99465.66
2023-01-10T20:27:28.116Z,99455.78
2023-01-10T20:29:54.552Z,99461.22
2023-01-10T20:32:22.162Z,99448.47
2023-01-10T20:34:49.641Z,99447.59
2023-01-10T20:37:16.252Z,99441.84
2023-01-10T20:39:42.754Z,99446.13
2023-01-10T20:42:09.178Z,99445.78
2023-01-10T20:44:35.618Z,99440.25
2023-01-10T20:47:02.117Z,99444.88
2023-01-10T20:49:28.569Z,99438.25
2023-01-10T20:51:55.091Z,99435.78
2023-01-10T20:54:21.714Z,99439.13
2023-01-10T20:56:48.149Z,99435.00
2023-01-10T20:59:14.566Z,99435.97
2023-01-10T21:01:41.224Z,99426.47
2023-01-10T21:04:07.864Z,99424.81
2023-01-10T21:06:35.716Z,99421.91
2023-01-10T21:09:03.327Z,99420.13
2023-01-10T21:11:29.800Z,99413.84
2023-01-10T21:13:56.205Z,99421.78
2023-01-10T21:16:23.033Z,99413.94
2023-01-10T21:18:50.410Z,99405.50
2023-01-10T21:21:20.236Z,99402.84
2023-01-10T21:23:46.696Z,99405.84
2023-01-10T21:26:14.673Z,99413.34
2023-01-10T21:28:43.344Z,99404.94
2023-01-10T21:31:12.960Z,99410.94
2023-01-10T21:33:39.507Z,99407.78
2023-01-10T21:36:06.295Z,99406.91
2023-01-10T21:38:33.592Z,99392.28
2023-01-10T21:41:38.127Z,99394.81
2023-01-10T21:44:05.457Z,99399.16
2023-01-10T21:46:33.423Z,99390.81
2023-01-10T21:49:01.644Z,99389.34
2023-01-10T21:51:28.102Z,99377.41
2023-01-10T21:53:54.517Z,99369.66
2023-01-10T21:56:20.941Z,99363.09
2023-01-10T21:58:48.496Z,99362.22
2023-01-10T22:01:15.350Z,99362.31
2023-01-10T22:03:42.012Z,99359.78
2023-01-10T22:06:08.537Z,99360.06
2023-01-10T22:08:35.092Z,99352.50
2023-01-10T22:11:01.509Z,99364.50
2023-01-10T22:13:28.069Z,99361.94
2023-01-10T22:15:59.324Z,99370.56
2023-01-10T22:18:26.742Z,99367.31
2023-01-10T22:20:57.417Z,99365.06
2023-01-10T22:23:24.394Z,99366.66
2023-01-10T22:26:05.984Z,99365.06
2023-01-10T22:28:32.937Z,99361.75
2023-01-10T22:30:59.801Z,99355.19
2023-01-10T22:33:31.013Z,99352.53
2023-01-10T22:36:22.928Z,99351.16
2023-01-10T22:38:49.435Z,99356.47
2023-01-10T22:41:20.576Z,99353.91
2023-01-10T22:43:54.887Z,99354.09
2023-01-10T22:46:22.475Z,99347.53
2023-01-10T22:48:49.116Z,99362.91
2023-01-10T22:51:17.327Z,99354.47
2023-01-10T22:53:49.178Z,99356.25
2023-01-10T22:56:15.637Z,99349.69
2023-01-10T22:58:48.139Z,99342.94
2023-01-10T23:01:16.078Z,99341.34
2023-01-10T23:03:42.837Z,99324.56
2023-01-10T23:06:10.816Z,99331.75
2023-01-10T23:08:39.001Z,99333.28
2023-01-10T23:11:08.687Z,99330.03
2023-01-10T23:13:35.659Z,99320.53
2023-01-10T23:16:03.207Z,99315.53
2023-01-10T23:18:29.777Z,99308.84
2023-01-10T23:20:56.263Z,99311.31
2023-01-10T23:23:23.693Z,99295.22
2023-01-10T23:26:01.401Z,99293.66
2023-01-10T23:28:33.567Z,99294.63
2023-01-10T23:31:00.121Z,99296.59
2023-01-10T23:33:26.583Z,99291.47
2023-01-10T23:35:52.984Z,99292.25
2023-01-10T23:38:19.490Z,99296.59
2023-01-10T23:40:46.018Z,99291.06
2023-01-10T23:43:12.457Z,99295.19
2023-01-10T23:45:38.928Z,99291.97
2023-01-10T23:48:06.032Z,99285.38
2023-01-10T23:50:32.474Z,99279.56
2023-01-10T23:52:58.862Z,99282.41
2023-01-10T23:55:25.323Z,99287.59
2023-01-10T23:57:51.743Z,99267.28
